Aviation Digital Data Service (ADDS)

Output produced by METARs form (0358 UTC 26 April 2019)
found at http://www.aviationweather.gov/metar/data/
 
METAR text: DNKN 260300Z 00000KT CAVOK 25/05 Q1013 NOSIG
Conditions at: DNKN (KANO/MALLAM AMIN, NG) observed 0300 UTC 26 April 2019
Temperature: 25.0°C (77°F)
Dewpoint: 5.0°C (41°F) [RH = 28%]
Pressure (altimeter): 29.91 inches Hg (1013.0 mb)
Winds: calm
Visibility: 6 or more miles (10+ km)
Ceiling: ceiling and visibility are OK
Clouds: unknown
Weather: no significant weather observed at this time

METAR text: DNKN 260100Z 00000KT CAVOK 27/05 Q1013 NOSIG
Conditions at: DNKN (KANO/MALLAM AMIN, NG) observed 0100 UTC 26 April 2019
Temperature: 27.0°C (81°F)
Dewpoint: 5.0°C (41°F) [RH = 24%]
Pressure (altimeter): 29.91 inches Hg (1013.0 mb)
Winds: calm
Visibility: 6 or more miles (10+ km)
Ceiling: ceiling and visibility are OK
Clouds: unknown
Weather: no significant weather observed at this time

METAR text: DNKN 260000Z 00000KT CAVOK 28/05 Q1013 NOSIG
Conditions at: DNKN (KANO/MALLAM AMIN, NG) observed 0000 UTC 26 April 2019
Temperature: 28.0°C (82°F)
Dewpoint: 5.0°C (41°F) [RH = 23%]
Pressure (altimeter): 29.91 inches Hg (1013.0 mb)
Winds: calm
Visibility: 6 or more miles (10+ km)
Ceiling: ceiling and visibility are OK
Clouds: unknown
Weather: no significant weather observed at this time

METAR text: DNKN 252300Z 00000KT CAVOK 30/03 Q1014 NOSIG
Conditions at: DNKN (KANO/MALLAM AMIN, NG) observed 2300 UTC 25 April 2019
Temperature: 30.0°C (86°F)
Dewpoint: 3.0°C (37°F) [RH = 18%]
Pressure (altimeter): 29.94 inches Hg (1014.0 mb)
Winds: calm
Visibility: 6 or more miles (10+ km)
Ceiling: ceiling and visibility are OK
Clouds: unknown
Weather: no significant weather observed at this time

METAR text: DNKN 252100Z 04004KT 7000 NSC 30/03 Q1014 NOSIG
Conditions at: DNKN (KANO/MALLAM AMIN, NG) observed 2100 UTC 25 April 2019
Temperature: 30.0°C (86°F)
Dewpoint: 3.0°C (37°F) [RH = 18%]
Pressure (altimeter): 29.94 inches Hg (1014.0 mb)
Winds: from the NE (40 degrees) at 5 MPH (4 knots; 2.1 m/s)
Visibility: 4 miles ( 7 km)
Ceiling: at least 12,000 feet AGL
Clouds: sky clear below 12,000 feet AGL
Weather: no significant weather observed at this time

METAR text: DNKN 252000Z 03004KT 7000 NSC 31/04 Q1013 NOSIG
Conditions at: DNKN (KANO/MALLAM AMIN, NG) observed 2000 UTC 25 April 2019
Temperature: 31.0°C (88°F)
Dewpoint: 4.0°C (39°F) [RH = 18%]
Pressure (altimeter): 29.91 inches Hg (1013.0 mb)
Winds: from the NNE (30 degrees) at 5 MPH (4 knots; 2.1 m/s)
Visibility: 4 miles ( 7 km)
Ceiling: at least 12,000 feet AGL
Clouds: sky clear below 12,000 feet AGL
Weather: no significant weather observed at this time

METAR text: DNKN 251900Z 03004KT 7000 NSC 33/09 Q1012 NOSIG
Conditions at: DNKN (KANO/MALLAM AMIN, NG) observed 1900 UTC 25 April 2019
Temperature: 33.0°C (91°F)
Dewpoint: 9.0°C (48°F) [RH = 23%]
Pressure (altimeter): 29.88 inches Hg (1012.0 mb)
Winds: from the NNE (30 degrees) at 5 MPH (4 knots; 2.1 m/s)
Visibility: 4 miles ( 7 km)
Ceiling: at least 12,000 feet AGL
Clouds: sky clear below 12,000 feet AGL
Weather: no significant weather observed at this time

METAR text: DNKN 251800Z 04005KT 7000 NSC 36/05 Q1012 NOSIG
Conditions at: DNKN (KANO/MALLAM AMIN, NG) observed 1800 UTC 25 April 2019
Temperature: 36.0°C (97°F)
Dewpoint: 5.0°C (41°F) [RH = 15%]
Pressure (altimeter): 29.88 inches Hg (1012.0 mb)
Winds: from the NE (40 degrees) at 6 MPH (5 knots; 2.6 m/s)
Visibility: 4 miles ( 7 km)
Ceiling: at least 12,000 feet AGL
Clouds: sky clear below 12,000 feet AGL
Weather: no significant weather observed at this time

METAR text: DNKN 251700Z 05007KT CAVOK 40/11 Q1011 NOSIG
Conditions at: DNKN (KANO/MALLAM AMIN, NG) observed 1700 UTC 25 April 2019
Temperature: 40.0°C (104°F)
Dewpoint: 11.0°C (52°F) [RH = 18%]
Pressure (altimeter): 29.85 inches Hg (1011.0 mb)
Winds: from the NE (50 degrees) at 8 MPH (7 knots; 3.6 m/s)
Visibility: 6 or more miles (10+ km)
Ceiling: ceiling and visibility are OK
Clouds: unknown
Weather: no significant weather observed at this time

METAR text: DNKN 251100Z 35003KT 7000 38/10 Q1015 NOSIG
Conditions at: DNKN (KANO/MALLAM AMIN, NG) observed 1100 UTC 25 April 2019
Temperature: 38.0°C (100°F)
Dewpoint: 10.0°C (50°F) [RH = 19%]
Pressure (altimeter): 29.97 inches Hg (1015.0 mb)
Winds: from the N (350 degrees) at 3 MPH (3 knots; 1.5 m/s)
Visibility: 4 miles ( 7 km)
Ceiling: unknown
Clouds: missing
Weather: no significant weather observed at this time

METAR text: DNKN 250900Z 29006KT 7000 34/15 Q1016 NOSIG
Conditions at: DNKN (KANO/MALLAM AMIN, NG) observed 0900 UTC 25 April 2019
Temperature: 34.0°C (93°F)
Dewpoint: 15.0°C (59°F) [RH = 32%]
Pressure (altimeter): 30.00 inches Hg (1016.0 mb)
Winds: from the WNW (290 degrees) at 7 MPH (6 knots; 3.1 m/s)
Visibility: 4 miles ( 7 km)
Ceiling: unknown
Clouds: missing
Weather: no significant weather observed at this time

METAR text: DNKN 250800Z 25008KT 7000 32/18 Q1016 NOSIG
Conditions at: DNKN (KANO/MALLAM AMIN, NG) observed 0800 UTC 25 April 2019
Temperature: 32.0°C (90°F)
Dewpoint: 18.0°C (64°F) [RH = 43%]
Pressure (altimeter): 30.00 inches Hg (1016.0 mb)
Winds: from the WSW (250 degrees) at 9 MPH (8 knots; 4.1 m/s)
Visibility: 4 miles ( 7 km)
Ceiling: unknown
Clouds: missing
Weather: no significant weather observed at this time

METAR text: DNKN 250700Z 24008KT 7000 31/20 Q1016 NOSIG
Conditions at: DNKN (KANO/MALLAM AMIN, NG) observed 0700 UTC 25 April 2019
Temperature: 31.0°C (88°F)
Dewpoint: 20.0°C (68°F) [RH = 52%]
Pressure (altimeter): 30.00 inches Hg (1016.0 mb)
Winds: from the WSW (240 degrees) at 9 MPH (8 knots; 4.1 m/s)
Visibility: 4 miles ( 7 km)
Ceiling: unknown
Clouds: missing
Weather: no significant weather observed at this time

METAR text: DNKN 250600Z 25005KT 8000 NSC 29/18 Q1015 NOSIG
Conditions at: DNKN (KANO/MALLAM AMIN, NG) observed 0600 UTC 25 April 2019
Temperature: 29.0°C (84°F)
Dewpoint: 18.0°C (64°F) [RH = 52%]
Pressure (altimeter): 29.97 inches Hg (1015.0 mb)
Winds: from the WSW (250 degrees) at 6 MPH (5 knots; 2.6 m/s)
Visibility: 5 miles ( 8 km)
Ceiling: at least 12,000 feet AGL
Clouds: sky clear below 12,000 feet AGL
Weather: no significant weather observed at this time

METAR text: DNKN 250500Z 22009KT CAVOK 29/16 Q1015 NOSIG
Conditions at: DNKN (KANO/MALLAM AMIN, NG) observed 0500 UTC 25 April 2019
Temperature: 29.0°C (84°F)
Dewpoint: 16.0°C (61°F) [RH = 45%]
Pressure (altimeter): 29.97 inches Hg (1015.0 mb)
Winds: from the SW (220 degrees) at 10 MPH (9 knots; 4.6 m/s)
Visibility: 6 or more miles (10+ km)
Ceiling: ceiling and visibility are OK
Clouds: unknown
Weather: no significant weather observed at this time

METAR text: DNKN 250300Z 22007KT CAVOK 32/16 Q1013 NOSIG
Conditions at: DNKN (KANO/MALLAM AMIN, NG) observed 0300 UTC 25 April 2019
Temperature: 32.0°C (90°F)
Dewpoint: 16.0°C (61°F) [RH = 38%]
Pressure (altimeter): 29.91 inches Hg (1013.0 mb)
Winds: from the SW (220 degrees) at 8 MPH (7 knots; 3.6 m/s)
Visibility: 6 or more miles (10+ km)
Ceiling: ceiling and visibility are OK
Clouds: unknown
Weather: no significant weather observed at this time

METAR text: DNKN 250200Z VRB02KT CAVOK 33/17 Q1013 NOSIG
Conditions at: DNKN (KANO/MALLAM AMIN, NG) observed 0200 UTC 25 April 2019
Temperature: 33.0°C (91°F)
Dewpoint: 17.0°C (63°F) [RH = 39%]
Pressure (altimeter): 29.91 inches Hg (1013.0 mb)
Winds: variable direction winds at 2 MPH (2 knots; 1.0 m/s)
Visibility: 6 or more miles (10+ km)
Ceiling: ceiling and visibility are OK
Clouds: unknown
Weather: no significant weather observed at this time

METAR text: DNKN 250100Z 33004KT CAVOK 33/17 Q1013 NOSIG
Conditions at: DNKN (KANO/MALLAM AMIN, NG) observed 0100 UTC 25 April 2019
Temperature: 33.0°C (91°F)
Dewpoint: 17.0°C (63°F) [RH = 39%]
Pressure (altimeter): 29.91 inches Hg (1013.0 mb)
Winds: from the NNW (330 degrees) at 5 MPH (4 knots; 2.1 m/s)
Visibility: 6 or more miles (10+ km)
Ceiling: ceiling and visibility are OK
Clouds: unknown
Weather: no significant weather observed at this time

METAR text: DNKN 242200Z 24003KT 8000 NSC 33/18 Q1014 NOSIG
Conditions at: DNKN (KANO/MALLAM AMIN, NG) observed 2200 UTC 24 April 2019
Temperature: 33.0°C (91°F)
Dewpoint: 18.0°C (64°F) [RH = 41%]
Pressure (altimeter): 29.94 inches Hg (1014.0 mb)
Winds: from the WSW (240 degrees) at 3 MPH (3 knots; 1.5 m/s)
Visibility: 5 miles ( 8 km)
Ceiling: at least 12,000 feet AGL
Clouds: sky clear below 12,000 feet AGL
Weather: no significant weather observed at this time